Time;durP1;ratioP1;P1;durP2;ratioP2;P2;SDS_P1;SDS_P2;PMS_P1;PMS_P2;Temp;Humidity;BMP_temperature;BMP_pressure;BME280_temperature;BME280_humidity;BME280_pressure;Samples;Min_cycle;Max_cycle;Signal;HPM_P1;HPM_P2
2023/12/15 00:13:48;;;;;;;48.60;21.90;;;;;;;3.92;81.70;100984.76;682204;1260;138613;-80
2023/12/15 00:29:26;;;;;;;39.70;18.00;;;;;;;4.09;81.39;101005.06;682525;1260;140181;-80
2023/12/15 00:45:02;;;;;;;45.30;20.10;;;;;;;3.98;80.89;101015.46;682643;1263;22237;-81
2023/12/15 01:00:40;;;;;;;40.80;19.90;;;;;;;4.03;81.18;101021.64;682819;1259;22088;-81
2023/12/15 01:16:17;;;;;;;62.20;23.50;;;;;;;4.04;81.48;101020.88;682724;1257;23521;-81
2023/12/15 01:31:55;;;;;;;46.10;19.90;;;;;;;4.06;81.93;101043.48;682772;1261;22962;-80
2023/12/15 01:47:33;;;;;;;43.20;19.20;;;;;;;4.08;81.92;101084.23;682809;1261;22251;-80
2023/12/15 02:03:10;;;;;;;54.30;25.60;;;;;;;4.13;82.23;101064.73;682685;1262;23226;-80
2023/12/15 02:18:47;;;;;;;;;;;;;;;4.14;82.15;101082.03;682834;1259;22463;-80
2023/12/15 02:34:25;;;;;;;72.90;27.60;;;;;;;4.14;82.92;101095.34;674990;1261;10143774;-80
2023/12/15 02:50:21;;;;;;;117.40;48.20;;;;;;;4.28;82.55;101096.05;682490;1257;140187;-81
2023/12/15 03:06:18;;;;;;;46.50;22.40;;;;;;;4.28;82.75;101114.80;682660;1259;140080;-80
2023/12/15 03:21:55;;;;;;;43.60;19.70;;;;;;;4.22;83.23;101133.95;682518;1257;140136;-81
2023/12/15 03:37:32;;;;;;;40.10;19.00;;;;;;;4.21;82.99;101151.48;682661;1262;139427;-80
2023/12/15 03:53:23;;;;;;;47.40;21.80;;;;;;;4.18;83.74;101155.75;682544;1262;139490;-80
2023/12/15 04:09:00;;;;;;;47.90;21.00;;;;;;;4.19;83.60;101173.89;682354;1260;141148;-81
2023/12/15 04:24:37;;;;;;;49.10;22.30;;;;;;;4.23;83.98;101180.29;681964;1259;139384;-80
2023/12/15 04:40:14;;;;;;;42.60;19.90;;;;;;;4.31;84.55;101194.44;681886;1264;139521;-80
2023/12/15 04:55:52;;;;;;;79.80;38.80;;;;;;;4.45;85.11;101206.64;682069;1262;139605;-81
2023/12/15 05:11:29;;;;;;;60.40;30.30;;;;;;;4.54;85.28;101224.91;682292;1262;22257;-81
2023/12/15 05:27:12;;;;;;;52.30;24.50;;;;;;;4.62;85.69;101245.67;682128;1262;22232;-80
2023/12/15 05:42:53;;;;;;;47.90;24.30;;;;;;;4.73;85.82;101263.69;682107;1262;22233;-81
2023/12/15 05:58:30;;;;;;;48.10;23.70;;;;;;;4.78;85.65;101275.05;682258;1259;23193;-82
2023/12/15 06:14:08;;;;;;;99.20;41.10;;;;;;;4.82;86.00;101294.98;682361;1262;22201;-82
2023/12/15 06:29:45;;;;;;;70.80;33.90;;;;;;;4.87;85.82;101310.16;682299;1262;22369;-81
2023/12/15 06:45:26;;;;;;;37.40;16.50;;;;;;;4.82;85.87;101328.43;682378;1258;22407;-83
2023/12/15 07:01:03;;;;;;;69.00;29.30;;;;;;;4.72;86.09;101336.55;682561;1262;140171;-82
2023/12/15 07:16:40;;;;;;;51.20;24.00;;;;;;;4.71;86.13;101370.55;682498;1262;139633;-81
2023/12/15 07:32:17;;;;;;;47.60;22.30;;;;;;;4.66;86.31;101377.34;682617;1262;138730;-82
2023/12/15 07:47:57;;;;;;;82.40;34.50;;;;;;;4.60;86.34;101388.36;682445;1262;138843;-82
2023/12/15 08:03:34;;;;;;;64.90;29.80;;;;;;;4.63;86.82;101397.41;682508;1264;138539;-82
2023/12/15 08:19:11;;;;;;;46.30;22.50;;;;;;;4.59;86.95;101407.32;682708;1262;139906;-83
2023/12/15 08:34:48;;;;;;;112.50;45.50;;;;;;;4.73;87.14;101429.39;682972;1262;22160;-83
2023/12/15 08:50:25;;;;;;;107.50;38.90;;;;;;;4.91;86.93;101437.77;682939;1262;22223;-83
2023/12/15 09:06:02;;;;;;;51.40;23.10;;;;;;;5.03;87.08;101451.61;682909;1262;22411;-82
2023/12/15 09:21:59;;;;;;;40.50;19.50;;;;;;;5.05;87.26;101458.44;683174;1262;22146;-83
2023/12/15 09:37:36;;;;;;;76.30;32.60;;;;;;;5.18;87.26;101463.56;683079;1262;22196;-83
2023/12/15 09:53:13;;;;;;;61.40;27.40;;;;;;;5.21;86.87;101457.56;682955;1260;22237;-83
2023/12/15 10:09:13;;;;;;;63.40;29.30;;;;;;;5.17;86.94;101456.49;682798;1262;138644;-84
2023/12/15 10:24:49;;;;;;;64.80;24.20;;;;;;;5.34;86.86;101450.84;683091;1262;22254;-84
2023/12/15 10:40:27;;;;;;;41.30;17.70;;;;;;;5.32;86.94;101446.77;683192;1263;22288;-85
2023/12/15 10:56:05;;;;;;;69.70;31.50;;;;;;;5.53;86.42;101446.13;682905;1263;22389;-85
2023/12/15 11:11:43;;;;;;;50.30;26.70;;;;;;;5.66;86.93;101459.39;682919;1262;22472;-85
2023/12/15 11:27:35;;;;;;;35.30;16.70;;;;;;;5.80;86.71;101467.06;683100;1263;23135;-85
2023/12/15 11:43:13;;;;;;;34.40;18.10;;;;;;;5.82;85.72;101470.75;683112;1263;22475;-83
2023/12/15 11:59:11;;;;;;;44.10;18.90;;;;;;;5.71;86.14;101489.86;682943;1261;22210;-83
2023/12/15 12:14:48;;;;;;;67.90;29.30;;;;;;;5.92;85.81;101477.21;683113;1263;22468;-83
2023/12/15 12:30:25;;;;;;;56.60;22.80;;;;;;;5.97;85.08;101474.58;682656;1263;22521;-85
2023/12/15 12:46:02;;;;;;;106.20;35.10;;;;;;;6.02;84.44;101499.14;682619;1264;138373;-84
2023/12/15 13:01:39;;;;;;;38.30;17.60;;;;;;;6.04;83.94;101513.48;682808;1263;23171;-85
2023/12/15 13:18:16;;;;;;;55.90;21.50;;;;;;;6.13;84.11;101513.91;682769;1263;138920;-85
2023/12/15 13:33:54;;;;;;;64.00;25.80;;;;;;;6.06;84.04;101513.88;683133;1260;22302;-85
2023/12/15 13:49:51;;;;;;;140.40;49.60;;;;;;;6.16;83.85;101536.52;682659;1263;139602;-87
2023/12/15 14:05:28;;;;;;;73.90;27.00;;;;;;;6.07;84.39;101546.01;682513;1261;141369;-86
2023/12/15 14:21:05;;;;;;;73.90;27.00;;;;;;;5.96;84.73;101537.13;674933;1264;10144369;-84
2023/12/15 14:36:42;;;;;;;107.30;38.70;;;;;;;6.06;84.58;101544.47;682767;1260;139668;-85
2023/12/15 14:52:44;;;;;;;77.70;25.70;;;;;;;6.13;85.12;101553.49;682790;1276;142367;-85
2023/12/15 15:08:27;;;;;;;47.40;19.10;;;;;;;6.03;85.31;101551.89;682701;1263;22909;-84
2023/12/15 15:24:04;;;;;;;46.60;19.00;;;;;;;6.17;85.39;101554.70;682634;1260;139067;-86
2023/12/15 15:40:04;;;;;;;39.20;16.50;;;;;;;6.11;85.94;101553.59;682710;1260;22153;-84
2023/12/15 15:55:45;;;;;;;35.70;15.60;;;;;;;6.20;86.16;101557.16;682538;1261;22257;-85
2023/12/15 16:11:22;;;;;;;33.10;14.80;;;;;;;6.35;85.60;101582.30;682696;1263;22242;-85
2023/12/15 16:27:00;;;;;;;33.80;15.30;;;;;;;6.39;85.71;101597.73;682788;1259;22455;-86
2023/12/15 16:42:37;;;;;;;59.30;24.30;;;;;;;6.35;86.10;101612.58;683252;1259;22980;-87
2023/12/15 16:58:18;;;;;;;57.30;29.20;;;;;;;6.52;85.83;101629.45;683198;1262;22541;-85
2023/12/15 17:13:56;;;;;;;71.70;30.10;;;;;;;6.61;85.83;101638.40;682749;1259;139363;-85
2023/12/15 17:29:34;;;;;;;41.30;17.50;;;;;;;6.58;85.79;101639.57;682912;1260;139481;-87
2023/12/15 17:45:25;;;;;;;54.00;23.90;;;;;;;6.63;86.28;101639.84;682777;1259;22342;-85
2023/12/15 18:01:06;;;;;;;69.10;26.30;;;;;;;6.68;86.74;101644.14;683256;1257;23304;-87
2023/12/15 18:16:42;;;;;;;61.50;27.50;;;;;;;6.75;86.49;101652.48;683213;1263;22335;-86
2023/12/15 18:32:20;;;;;;;44.90;20.60;;;;;;;6.79;86.99;101671.23;682953;1259;22507;-84
2023/12/15 18:47:57;;;;;;;40.20;18.50;;;;;;;6.71;87.13;101689.52;683117;1259;22254;-87
2023/12/15 19:03:34;;;;;;;50.70;20.00;;;;;;;6.75;87.75;101709.49;682942;1259;22228;-87
2023/12/15 19:19:11;;;;;;;87.60;32.00;;;;;;;6.74;88.34;101712.15;682967;1259;22259;-86
2023/12/15 19:34:48;;;;;;;74.00;28.30;;;;;;;6.75;88.56;101723.06;683028;1258;138466;-87
2023/12/15 19:50:25;;;;;;;66.40;24.40;;;;;;;6.87;88.90;101734.86;682776;1262;140259;-86
2023/12/15 20:06:02;;;;;;;237.00;70.10;;;;;;;6.83;89.82;101751.86;683038;1259;139508;-87
2023/12/15 20:21:40;;;;;;;49.50;20.60;;;;;;;6.83;90.27;101741.13;682811;1263;139602;-86
2023/12/15 20:37:36;;;;;;;48.20;20.40;;;;;;;6.76;91.51;101744.21;682718;1258;138744;-84
2023/12/15 20:53:13;;;;;;;50.50;20.30;;;;;;;6.66;92.60;101771.31;682837;1260;138622;-87
2023/12/15 21:08:53;;;;;;;45.70;20.90;;;;;;;6.73;93.24;101767.65;682137;1259;140478;-86
2023/12/15 21:24:29;;;;;;;62.40;24.70;;;;;;;6.72;93.85;101746.36;682295;1262;139803;-87
2023/12/15 21:40:06;;;;;;;69.30;25.90;;;;;;;6.84;93.53;101757.73;682643;1260;139945;-86
2023/12/15 21:55:44;;;;;;;64.40;24.10;;;;;;;6.83;94.32;101779.53;682745;1260;139927;-87
2023/12/15 22:11:21;;;;;;;56.70;21.50;;;;;;;6.83;94.56;101783.77;682494;1263;138770;-86
2023/12/15 22:26:58;;;;;;;53.40;18.50;;;;;;;6.83;95.10;101785.44;682579;1257;139185;-88
2023/12/15 22:42:39;;;;;;;63.00;25.60;;;;;;;6.91;95.57;101799.88;682754;1259;139621;-87
2023/12/15 22:58:16;;;;;;;48.00;19.10;;;;;;;7.06;94.56;101825.39;682668;1262;139544;-86
2023/12/15 23:13:53;;;;;;;53.00;20.40;;;;;;;7.09;94.41;101830.49;682710;1262;139007;-86
2023/12/15 23:29:30;;;;;;;60.40;24.60;;;;;;;7.09;94.47;101827.19;682566;1261;139298;-86
2023/12/15 23:45:08;;;;;;;35.70;17.50;;;;;;;7.06;94.70;101820.33;682634;1260;139625;-87
